Illinois Logo

Bolingbrook, IL Single Family Real Estate Listings

256 Total Real Estate Listings * Click on table heading to sort
Date Posted Property Type Style Address Price Living Area Lot Size Price/Sq Ft.
2018-01-18 Single Family 136 Newport Drive Bolingbrook, IL 60440 $215,000 2,315 sq. ft. 7,841 sq. ft. $93
2018-01-18 Single Family Ranch 121 Newport Drive Bolingbrook, IL 60440 $209,900 1,600 sq. ft. 7,841 sq. ft. $131
2018-01-18 Single Family 408 Wellington Lane Bolingbrook, IL 60440 $129,900 1,224 sq. ft. $106
2018-01-17 Single Family 419 Orchard Drive Bolingbrook, IL 60440 $279,900 2,209 sq. ft. 10,454 sq. ft. $127
2018-01-17 Single Family Ranch 144 Cypress Drive Bolingbrook, IL 60440 $160,000 1,162 sq. ft. 7,405 sq. ft. $138
2018-01-17 Single Family 7 Liberty Court Bolingbrook, IL 60440 $200,000 1,950 sq. ft. 7,405 sq. ft. $103
2018-01-17 Single Family 428 Pheasant Chase Drive Bolingbrook, IL 60490 $289,000 1,970 sq. ft. 10,454 sq. ft. $147
2018-01-17 Single Family Ranch 315 Dean Circle Bolingbrook, IL 60440 $195,000 1,133 sq. ft. 7,841 sq. ft. $172
2018-01-17 Single Family Cape Cod 241 Cedarwood Avenue Bolingbrook, IL 60440 $214,750 1,909 sq. ft. 8,276 sq. ft. $112
2018-01-17 Single Family 1859 Pampas Circle Bolingbrook, IL 60490 $610,000 4,200 sq. ft. 34,412 sq. ft. $145
2018-01-16 Single Family Ranch 132 Seabury Road Bolingbrook, IL 60440 $195,000 1,772 sq. ft. 8,276 sq. ft. $110
2018-01-16 Single Family Traditional 352 Wildflower Way Bolingbrook, IL 60440 $149,900 1,731 sq. ft. 7,405 sq. ft. $87
2018-01-16 Single Family Ranch 248 Oakridge Court Bolingbrook, IL 60440 $175,000 1,128 sq. ft. 10,890 sq. ft. $155
2018-01-16 Single Family 209 Janes Avenue Bolingbrook, IL 60440 $199,900 7,841 sq. ft.
2018-01-16 Single Family Quad Level 141 Balmoral Drive Bolingbrook, IL 60440 $214,900 2,342 sq. ft. 7,405 sq. ft. $92
2018-01-16 Single Family 2 Buckboard Court Bolingbrook, IL 60490 $229,900 1,742 sq. ft. $132
2018-01-16 Single Family Contemporary Bolingbrook, IL $319,900 3,494 sq. ft. 10,890 sq. ft. $92
2018-01-16 Single Family 129 Somerset Lane Bolingbrook, IL 60440 $139,900 1,104 sq. ft. 1,307 sq. ft. $127
2018-01-15 Single Family 338 Merlin Court Bolingbrook, IL 60440 $229,900 1,755 sq. ft. 8,276 sq. ft. $131
2018-01-15 Single Family Traditional 1162 Winding Way Bolingbrook, IL 60490 $369,000 3,270 sq. ft. 11,761 sq. ft. $113
2018-01-15 Single Family Ranch 104 Fairwood Drive Bolingbrook, IL 60440 $169,999 1,162 sq. ft. 7,405 sq. ft. $146
2018-01-15 Single Family 1174 Mandalay Lane Bolingbrook, IL 60440 $287,900 1,785 sq. ft. $161
2018-01-13 Single Family Bolingbrook, IL $140,900 912 sq. ft. $154
2018-01-13 Single Family 432 Delaware Circle Bolingbrook, IL 60440 $407,500 3,130 sq. ft. 15,246 sq. ft. $130
2018-01-12 Single Family Ranch 135 Creekside Drive Bolingbrook, IL 60440 $144,900 864 sq. ft. 6,534 sq. ft. $168
2018-01-12 Single Family Bolingbrook, IL $199,900 1,304 sq. ft. 7,841 sq. ft. $153
2018-01-12 Single Family 1523 Trails End Lane Bolingbrook, IL 60490 $399,900 3,500 sq. ft. 9,148 sq. ft. $114
2018-01-11 Single Family Traditional 2356 Brookstone Drive Bolingbrook, IL 60490 $379,000 3,190 sq. ft. 10,890 sq. ft. $119
2018-01-11 Single Family Tri-Level 201 Andover Court Bolingbrook, IL 60440 $229,900 1,550 sq. ft. 24,394 sq. ft. $148
2018-01-11 Single Family 421 Mallview Lane Bolingbrook, IL 60440 $124,900 794 sq. ft. $157
2018-01-11 Single Family 143 Wedgewood Way Bolingbrook, IL 60440 $249,900 1,726 sq. ft. 7,405 sq. ft. $145
2018-01-11 Single Family Traditional 2143 Kemmerer Lane Bolingbrook, IL 60490 $329,900 2,773 sq. ft. 10,019 sq. ft. $119
2018-01-11 Single Family 119 Enclave Circle Bolingbrook, IL 60440 $179,900 1,566 sq. ft. $115
2018-01-10 Single Family 1867 Leeds Road Bolingbrook, IL 60490 $369,900 2,551 sq. ft. 10,890 sq. ft. $145
2018-01-10 Single Family 130 Periwinkle Lane Bolingbrook, IL 60490 $314,900 1,782 sq. ft. 9,148 sq. ft. $177
2018-01-10 Single Family 1071 Lily Field Lane Bolingbrook, IL 60440 $200,000 1,517 sq. ft. 1,742 sq. ft. $132
2018-01-10 Single Family 654 Feather Sound Drive Bolingbrook, IL 60440 $259,900 2,132 sq. ft. 7,841 sq. ft. $122
2018-01-09 Single Family 528 Carlyle Lane Bolingbrook, IL 60440 $158,900 1,625 sq. ft. 6,970 sq. ft. $98
2018-01-09 Single Family Tri-Level 1755 Maroon Bells Lane Bolingbrook, IL 60490 $250,000 1,964 sq. ft. 10,890 sq. ft. $127
2018-01-08 Single Family Bi-Level 472 Falconridge Way Bolingbrook, IL 60440 $199,000 1,726 sq. ft. 7,841 sq. ft. $115
2018-01-08 Single Family 1122 Mandalay Lane Bolingbrook, IL 60440 $236,900 1,347 sq. ft. $176
2018-01-08 Single Family Traditional 1639 Boulder Ridge Drive Bolingbrook, IL 60490 $270,000 2,518 sq. ft. 15,682 sq. ft. $107
2018-01-07 Single Family Tri-Level 2 Bosi Court Bolingbrook, IL 60490 $284,900 1,800 sq. ft. 10,890 sq. ft. $158
2018-01-06 Single Family 395 Palmer Drive Bolingbrook, IL 60490 $307,900 2,463 sq. ft. 8,712 sq. ft. $125
2018-01-05 Single Family Tri-Level 169 Sycamore Drive Bolingbrook, IL 60490 $265,000 1,825 sq. ft. 9,583 sq. ft. $145
2018-01-05 Single Family 165 Galewood Drive Bolingbrook, IL 60440 $168,900 1,064 sq. ft. 9,148 sq. ft. $159
2018-01-05 Single Family 733 Pinecrest Road Bolingbrook, IL 60440 $214,900 2,198 sq. ft. $98
2018-01-05 Single Family Colonial 838 Rebecca Lane Bolingbrook, IL 60440 $224,900 1,660 sq. ft. 8,712 sq. ft. $135
2018-01-04 Single Family Traditional 1531 Schumacher Drive Bolingbrook, IL 60490 $324,900 2,350 sq. ft. 9,583 sq. ft. $138
2018-01-04 Single Family Bi-Level 358 King Arthur Court Bolingbrook, IL 60440 $234,500 2,092 sq. ft. 7,841 sq. ft. $112
2018-01-04 Single Family 694 Birchwood Drive Bolingbrook, IL 60490 $180,000 1,528 sq. ft. 10,019 sq. ft. $118
2018-01-04 Single Family 502 Foxborough Trail Bolingbrook, IL 60440 $294,900 1,844 sq. ft. 8,712 sq. ft. $160
2018-01-04 Single Family Traditional 1 Catalpa Court Bolingbrook, IL 60490 $279,000 2,470 sq. ft. 10,890 sq. ft. $113
2018-01-04 Single Family 1 Plainview Court Bolingbrook, IL 60440 $266,000 2,470 sq. ft. 9,583 sq. ft. $108
2018-01-04 Single Family 551 Goodwin Drive Bolingbrook, IL 60440 $224,900 1,742 sq. ft.
2018-01-04 Single Family Colonial 2300 Pebblestone Way Bolingbrook, IL 60490 $359,000 2,638 sq. ft. 9,583 sq. ft. $136
2018-01-03 Single Family Quad Level 4 Haverhill Court Bolingbrook, IL 60440 $245,900 1,915 sq. ft. 10,128 sq. ft. $128
2018-01-02 Single Family 801 Hartford Lane Bolingbrook, IL 60440 $400,000 3,888 sq. ft. 16,553 sq. ft. $103
2018-01-02 Single Family 1882 Great Plains Way Bolingbrook, IL 60490 $410,882 3,101 sq. ft. 9,583 sq. ft. $132
2018-01-02 Single Family 1134 Mandalay Lane Bolingbrook, IL 60440 $273,900 1,700 sq. ft. $161
2018-01-02 Single Family 1138 Mandalay Lane Bolingbrook, IL 60440 $283,900 1,700 sq. ft. $167
2018-01-02 Single Family 1130 Mandalay Lane Bolingbrook, IL 60440 $287,900 1,785 sq. ft. $161
2018-01-02 Single Family Ranch 146 Springleaf Drive Bolingbrook, IL 60440 $175,000 1,112 sq. ft. 6,970 sq. ft. $157
2018-01-02 Single Family 532 Lavina Drive Bolingbrook, IL 60440 $374,000 2,396 sq. ft. 11,761 sq. ft. $156
2017-12-31 Single Family Traditional 411 Cardinal Lane Bolingbrook, IL 60490 $279,800 2,304 sq. ft. 10,019 sq. ft. $121
2017-12-30 Single Family 221 Douglass Way Bolingbrook, IL 60440 $111,000 1,180 sq. ft. 2,614 sq. ft. $94
2017-12-29 Single Family 456 Skokie Lane Bolingbrook, IL 60440 $159,900 1,701 sq. ft. 1,742 sq. ft. $94
2017-12-29 Single Family 526 Thomas Road Bolingbrook, IL 60440 $159,000 1,320 sq. ft. $120
2017-12-29 Single Family Traditional 2 Marshall Ash Court Bolingbrook, IL 60490 $294,000 2,894 sq. ft. $102
2017-12-29 Single Family 457 Wright Court Bolingbrook, IL 60440 $138,000 1,361 sq. ft. $101
2017-12-28 Single Family Traditional 151 Holly Street Bolingbrook, IL 60490 $290,000 2,267 sq. ft. 9,583 sq. ft. $128
2017-12-27 Single Family Quad Level 213 Grant Drive Bolingbrook, IL 60440 $224,900 1,367 sq. ft. $165
2017-12-27 Single Family Colonial 168 Thornhurst Road Bolingbrook, IL 60440 $152,500 1,536 sq. ft. 8,276 sq. ft. $99
2017-12-26 Single Family 333 Ozark Drive Bolingbrook, IL 60440 $154,900 1,600 sq. ft. $97
2017-12-26 Single Family Traditional 1417 Glenside Drive Bolingbrook, IL 60490 $370,000 3,592 sq. ft. 12,197 sq. ft. $103
2017-12-22 Single Family 2 Derbyshire Court Bolingbrook, IL 60440 $224,500
2017-12-21 Single Family 1146 Mandalay Lane Bolingbrook, IL 60440 $268,900 1,700 sq. ft. $158
2017-12-20 Single Family Step Ranch 6 Bent Tree Court Bolingbrook, IL 60440 $255,000 2,700 sq. ft. 20,473 sq. ft. $94
2017-12-18 Single Family 1275 Winding Way Bolingbrook, IL 60490 $379,900 3,356 sq. ft. 12,632 sq. ft. $113
2017-12-17 Single Family Traditional 175 Cranberry Street Bolingbrook, IL 60490 $289,900 2,267 sq. ft. 10,890 sq. ft. $128
2017-12-17 Single Family 222 Pacific Drive Bolingbrook, IL 60440 $175,000 1,440 sq. ft. 6,098 sq. ft. $122
2017-12-17 Single Family Bi-Level 7 Marquette Court Bolingbrook, IL 60440 $237,900 1,915 sq. ft. 10,890 sq. ft. $124
2017-12-16 Single Family Traditional 355 Sweet Gum Street Bolingbrook, IL 60490 $339,900 3,036 sq. ft. 10,890 sq. ft. $112
2017-12-16 Single Family Colonial 1302 Riverview Lane Bolingbrook, IL 60490 $364,200 3,120 sq. ft. 9,148 sq. ft. $117
2017-12-15 Single Family Ranch 149 Olympic Drive Bolingbrook, IL 60440 $199,900 1,112 sq. ft. 6,534 sq. ft. $180
2017-12-15 Single Family Walk-Out Ranch 236 Seneca Court Bolingbrook, IL 60440 $229,900 1,768 sq. ft. 6,970 sq. ft. $130
2017-12-12 Single Family Traditional 414 Wildflower Way Bolingbrook, IL 60440 $235,000 2,058 sq. ft. 7,405 sq. ft. $114
2017-12-11 Single Family 1914 Barrington Avenue Bolingbrook, IL 60490 $339,000 4,200 sq. ft. 9,583 sq. ft. $81
2017-12-11 Single Family Bi-Level 226 Bunker Hill Drive Bolingbrook, IL 60440 $209,900 1,462 sq. ft. 6,098 sq. ft. $144
2017-12-10 Single Family 579 Buckboard Road Bolingbrook, IL 60490 $209,000 1,800 sq. ft. 6,970 sq. ft. $116
2017-12-08 Single Family 206 Seabury Road Bolingbrook, IL 60440 $189,900 1,862 sq. ft. 7,841 sq. ft. $102
2017-12-08 Single Family Contemporary 480 Columbine Lane Bolingbrook, IL 60440 $180,000 1,768 sq. ft. 7,405 sq. ft. $102
2017-12-08 Single Family Bi-Level 188 Campbell Drive Bolingbrook, IL 60440 $179,000 1,441 sq. ft. 6,534 sq. ft. $124
2017-12-07 Single Family 401 Delaware Circle Bolingbrook, IL 60440 $299,900 3,042 sq. ft. 10,890 sq. ft. $99
2017-12-06 Single Family Bi-Level 223 Lafayette Drive Bolingbrook, IL 60440 $144,900 1,300 sq. ft. 8,712 sq. ft. $111
2017-12-06 Single Family 226 Pacific Drive Bolingbrook, IL 60440 $167,500 1,350 sq. ft. 8,712 sq. ft. $124
2017-12-06 Single Family 500 Briarcliff Road Bolingbrook, IL 60440 $249,900 2,151 sq. ft. 10,890 sq. ft. $116
2017-12-05 Single Family 1399 Comanche Drive Bolingbrook, IL 60490 $239,700 10,454 sq. ft.
2017-12-03 Single Family 660 Lakewood Farms Drive Bolingbrook, IL 60490 $245,000 1,608 sq. ft. 10,454 sq. ft. $152
2017-12-03 Single Family 5 Sandalwood Court Bolingbrook, IL 60440 $173,250 1,820 sq. ft. 8,712 sq. ft. $95
2017-12-02 Single Family 10 Fernwood Drive Bolingbrook, IL 60440 $64,900 892 sq. ft. $73
2017-12-02 Single Family 408 Wellington Lane Bolingbrook, IL 60440 $119,900 1,224 sq. ft. $98
2017-12-02 Single Family 392 Ingleside Drive Bolingbrook, IL 60490 $209,900 1,900 sq. ft. 7,841 sq. ft. $110
2017-12-01 Single Family 172 Nottingham Drive Bolingbrook, IL 60440 $169,900 1,210 sq. ft. 7,841 sq. ft. $140
2017-12-01 Single Family 533 Spruce Road Bolingbrook, IL 60440 $159,900 1,550 sq. ft. 8,712 sq. ft. $103
2017-12-01 Single Family 484 Rockhurst Road Bolingbrook, IL 60440 $205,900 1,755 sq. ft. $117
2017-12-01 Single Family 508 Boardman Circle Bolingbrook, IL 60440 $349,900 1,897 sq. ft. 8,276 sq. ft. $184
2017-11-30 Single Family 204 Douglass Way Bolingbrook, IL 60440 $164,900 1,460 sq. ft. $113
2017-11-30 Single Family 1242 Chanticleer Avenue Bolingbrook, IL 60490 $280,000 2,156 sq. ft. 9,583 sq. ft. $130
2017-11-30 Single Family 1522 Envee Drive Bolingbrook, IL 60490 $194,900 1,438 sq. ft. $136
2017-11-30 Single Family 405 Primrose Lane Bolingbrook, IL 60490 $209,900 1,701 sq. ft. $123
2017-11-29 Single Family 1144 Bramble Avenue Bolingbrook, IL 60490 $209,000 2,049 sq. ft. 8,712 sq. ft. $102
2017-11-29 Single Family American 4-Sq 2150 Emily Drive Bolingbrook, IL 60490 $349,900 2,773 sq. ft. 9,148 sq. ft. $126
2017-11-28 Single Family 108 Friars Court Bolingbrook, IL 60440 $235,000 2,092 sq. ft. 7,405 sq. ft. $112
2017-11-28 Single Family 217 Sparrow Lane Bolingbrook, IL 60490 $339,900 2,400 sq. ft. 10,890 sq. ft. $142
2017-11-27 Single Family Bi-Level 1066 Ridgewood Drive Bolingbrook, IL 60440 $215,000 2,184 sq. ft. 8,276 sq. ft. $98
2017-11-26 Single Family Step Ranch 359 Gehrig Circle Bolingbrook, IL 60440 $149,900 1,100 sq. ft. 6,970 sq. ft. $136
2017-11-25 Single Family Traditional 369 Hogan Street Bolingbrook, IL 60490 $299,900 2,594 sq. ft. 10,890 sq. ft. $116
2017-11-22 Single Family Bi-Level 1463 Basswood Drive Bolingbrook, IL 60490 $245,000 1,700 sq. ft. 9,583 sq. ft. $144
2017-11-22 Single Family 1043 Bothwell Circle Bolingbrook, IL 60440 $189,000
2017-11-21 Single Family Bi-Level 257 Thornhurst Road Bolingbrook, IL 60440 $210,000 1,550 sq. ft. 7,841 sq. ft. $135
2017-11-21 Single Family Ranch 238 Gettysburg Drive Bolingbrook, IL 60440 $154,900 1,304 sq. ft. $119
2017-11-21 Single Family Traditional 813 Lindsey Lane Bolingbrook, IL 60440 $365,000 3,888 sq. ft. 13,504 sq. ft. $94
2017-11-20 Single Family Bolingbrook, IL $269,900 2,300 sq. ft. 10,019 sq. ft. $117
2017-11-20 Single Family 409 Justine Avenue Bolingbrook, IL 60440 $234,900 1,950 sq. ft. 17,860 sq. ft. $120
2017-11-20 Single Family Traditional 9 Forsythia Court Bolingbrook, IL 60490 $289,000 2,600 sq. ft. 10,454 sq. ft. $111
2017-11-20 Single Family 9 Fernwood Drive Bolingbrook, IL 60440 $139,900 1,400 sq. ft. $100
2017-11-20 Single Family 316 Ottawa Drive Bolingbrook, IL 60440 $114,900 853 sq. ft. $135
2017-11-19 Single Family Contemporary 327 Clarendon Lane Bolingbrook, IL 60440 $237,500 2,009 sq. ft. 14,810 sq. ft. $118
2017-11-18 Single Family 518 Blackhawk Lane Bolingbrook, IL 60440 $99,900 790 sq. ft. $126
2017-11-17 Single Family 393 Aaron Lane Bolingbrook, IL 60440 $205,000 1,768 sq. ft. 3,049 sq. ft. $116
2017-11-16 Single Family Traditional 1843 Great Plains Way Bolingbrook, IL 60490 $415,000 3,705 sq. ft. 9,583 sq. ft. $112
2017-11-16 Single Family 1023 Bothwell Court Bolingbrook, IL 60440 $235,000 1,952 sq. ft. $120
2017-11-16 Single Family Ranch 241 Seabury Road Bolingbrook, IL 60440 $200,000 2,172 sq. ft. 8,276 sq. ft. $92
2017-11-15 Single Family Bi-Level 109 Camelot Way Bolingbrook, IL 60440 $185,000 1,158 sq. ft. 10,019 sq. ft. $160
2017-11-15 Single Family 752 Lindsey Lane Bolingbrook, IL 60440 $399,000 5,000 sq. ft. 10,019 sq. ft. $80
2017-11-13 Single Family 1114 Mandalay Lane Bolingbrook, IL 60440 $246,900 1,437 sq. ft. $172
2017-11-13 Single Family 1126 Mandalay Lane Bolingbrook, IL 60440 $246,900 1,437 sq. ft. $172
2017-11-11 Single Family 1118 Mandalay Lane Bolingbrook, IL 60440 $236,900 1,347 sq. ft. $176
2017-11-11 Single Family 1511 Comanche Drive Bolingbrook, IL 60490 $325,000 2,350 sq. ft. 8,712 sq. ft. $138
2017-11-09 Single Family Traditional 2190 Muirfield Trail Bolingbrook, IL 60490 $356,900 3,214 sq. ft. 12,197 sq. ft. $111
2017-11-08 Single Family Tri-Level 233 Plainview Drive Bolingbrook, IL 60440 $159,900 1,170 sq. ft. 8,276 sq. ft. $137
2017-11-08 Single Family Bi-Level 436 Ashbury Avenue Bolingbrook, IL 60440 $214,000 10,890 sq. ft.
2017-11-08 Single Family 689 Blackhawk Lane Bolingbrook, IL 60440 $239,900 1,907 sq. ft. 7,841 sq. ft. $126
2017-11-08 Single Family 181 Jeffrey Lane Bolingbrook, IL 60440 $174,900 2,178 sq. ft.
2017-11-07 Single Family Bolingbrook, IL $399,900 2,659 sq. ft. 15,246 sq. ft. $150
2017-11-06 Single Family 620 Olive Place Bolingbrook, IL 60440 $150,000 1,180 sq. ft. $127
2017-11-06 Single Family 543 Goodwin Drive Bolingbrook, IL 60440 $219,900 1,750 sq. ft. $126
2017-11-05 Single Family 7 Glenview Court Bolingbrook, IL 60490 $315,000 2,773 sq. ft. 9,583 sq. ft. $114
2017-11-04 Single Family Traditional 323 Deering Lane Bolingbrook, IL 60440 $249,900 2,009 sq. ft. 8,276 sq. ft. $124
2017-11-04 Single Family Bi-Level 168 Butternut Drive Bolingbrook, IL 60440 $187,500 1,863 sq. ft. 8,712 sq. ft. $101
2017-11-04 Single Family Ranch 213 Whitewater Drive Bolingbrook, IL 60440 $154,900 1,740 sq. ft. $89
2017-11-03 Single Family 387 Inner Circle Drive Bolingbrook, IL 60490 $200,000 1,813 sq. ft. $110
2017-11-02 Single Family Traditional 1671 Apricot Street Bolingbrook, IL 60490 $264,900 2,267 sq. ft. $117
2017-11-02 Single Family 1137 Mandalay Lane Bolingbrook, IL 60440 $236,900 1,347 sq. ft. $176
2017-10-31 Single Family Tri-Level 796 Rebecca Lane Bolingbrook, IL 60440 $225,000 1,701 sq. ft. 8,712 sq. ft. $132
2017-10-31 Single Family 378 Blackfoot Drive Bolingbrook, IL 60490 $261,000 2,350 sq. ft. 9,583 sq. ft. $111
2017-10-31 Single Family 500 Charlestown Drive Bolingbrook, IL 60440 $199,000 1,950 sq. ft. $102
2017-10-27 Single Family 1141 Mandalay Lane Bolingbrook, IL 60440 $246,900 1,459 sq. ft. $169
2017-10-25 Single Family Tri-Level 439 Alcester Court Bolingbrook, IL 60440 $228,500 1,913 sq. ft. 10,890 sq. ft. $119
2017-10-25 Single Family Contemporary Bolingbrook, IL $429,900 6,500 sq. ft. 13,068 sq. ft. $66
2017-10-25 Single Family 131 Jerome Lane Bolingbrook, IL 60440 $149,900 1,180 sq. ft. $127
2017-10-25 Single Family 743 Dunham Lane Bolingbrook, IL 60440 $439,900 3,500 sq. ft. 21,780 sq. ft. $126
2017-10-24 Single Family Step Ranch 1101 Partridge Avenue Bolingbrook, IL 60490 $209,000 1,800 sq. ft. 8,276 sq. ft. $116
2017-10-24 Single Family 1191 Mandalay Lane Bolingbrook, IL 60440 $275,900 1,700 sq. ft. $162
2017-10-24 Single Family 150 Enclave Circle Bolingbrook, IL 60440 $159,900 1,745 sq. ft. 15,682 sq. ft. $92
2017-10-23 Single Family 500 Goodwin Drive Bolingbrook, IL 60440 $239,900 1,750 sq. ft. 1,307 sq. ft. $137
2017-10-23 Single Family Bolingbrook, IL $599,900 3,000 sq. ft. 15,682 sq. ft. $200
2017-10-23 Single Family Step Ranch 324 Lyons Drive Bolingbrook, IL 60440 $154,900 1,178 sq. ft. 6,970 sq. ft. $131
2017-10-22 Single Family 705 Ashbury Avenue Bolingbrook, IL 60440 $280,000 1,950 sq. ft. 7,841 sq. ft. $144
2017-10-20 Single Family 387 Orchard Drive Bolingbrook, IL 60440 $290,000 2,278 sq. ft. 10,019 sq. ft. $127
2017-10-19 Single Family 217 Plainview Drive Bolingbrook, IL 60440 $139,900 1,064 sq. ft. 7,405 sq. ft. $131
2017-10-19 Single Family Contemporary 5 Genesee Court Bolingbrook, IL 60440 $407,500 2,860 sq. ft. 34,848 sq. ft. $142
2017-10-19 Single Family 245 Porter Lane Bolingbrook, IL 60440 $194,900 1,754 sq. ft. 2,178 sq. ft. $111
2017-10-17 Single Family Traditional 1221 Danhof Drive Bolingbrook, IL 60490 $359,000 2,773 sq. ft. 10,454 sq. ft. $129
2017-10-16 Single Family 1834 Marne Road Bolingbrook, IL 60490 $379,900 3,065 sq. ft. 8,712 sq. ft. $124
2017-10-13 Single Family 1275 Twilight Way Bolingbrook, IL 60490 $419,900 4,245 sq. ft. 10,890 sq. ft. $99
2017-10-13 Single Family 228 Douglass Way Bolingbrook, IL 60440 $188,900 1,754 sq. ft. 2,178 sq. ft. $108
2017-10-11 Single Family 343 83rd Street Bolingbrook, IL 60440 $295,000 1,885 sq. ft. 9,901 sq. ft. $156
2017-10-10 Single Family 285 Navajo Drive Bolingbrook, IL 60440 $154,900 979 sq. ft. $158
2017-10-09 Single Family 230 Clifton Lane Bolingbrook, IL 60440 $259,000 2,351 sq. ft. 9,583 sq. ft. $110
2017-10-07 Single Family Traditional 1788 Trevino Circle Bolingbrook, IL 60490 $437,000 3,566 sq. ft. 11,326 sq. ft. $123
2017-10-07 Single Family 1326 Danhof Drive Bolingbrook, IL 60490 $384,000 4,094 sq. ft. $94
2017-10-06 Single Family Contemporary 242 Clubhouse Street Bolingbrook, IL 60490 $257,000 2,267 sq. ft. $113
2017-10-05 Single Family 1486 Schafer Avenue Bolingbrook, IL 60490 $264,000 2,147 sq. ft. 8,712 sq. ft. $123
2017-10-04 Single Family 435 Sioux Drive Bolingbrook, IL 60440 $199,900 1,441 sq. ft. 5,227 sq. ft. $139
2017-10-04 Single Family Ranch 125 Lawton Lane Bolingbrook, IL 60440 $169,900 1,372 sq. ft. 8,276 sq. ft. $124
2017-10-04 Single Family 444 Seminole Lane Bolingbrook, IL 60440 $193,500 1,760 sq. ft. 10,454 sq. ft. $110
2017-10-02 Single Family Colonial 460 Rebecca Lane Bolingbrook, IL 60440 $225,000 1,660 sq. ft. 7,405 sq. ft. $136
2017-10-01 Single Family Traditional 388 Claridge Circle Bolingbrook, IL 60440 $289,900 2,889 sq. ft. 10,454 sq. ft. $100
2017-10-01 Single Family 860 Summit Lane Bolingbrook, IL 60440 $209,000 1,114 sq. ft. $188
2017-09-29 Single Family Ranch 158 Flagstaff Drive Bolingbrook, IL 60440 $189,000 1,474 sq. ft. 8,276 sq. ft. $128
2017-09-29 Single Family Traditional 8 Roanoke Court Bolingbrook, IL 60440 $498,000 4,196 sq. ft. 27,443 sq. ft. $119
2017-09-28 Single Family 24 Yukon Court Bolingbrook, IL 60490 $350,000 2,700 sq. ft. 11,326 sq. ft. $130
2017-09-28 Single Family Traditional 517 Sonoma Drive Bolingbrook, IL 60490 $394,900 4,323 sq. ft. $91
2017-09-24 Single Family 494 Bloomfield Drive Bolingbrook, IL 60440 $175,000 1,701 sq. ft. 9,583 sq. ft. $103
2017-09-22 Single Family 393 Plainview Drive Bolingbrook, IL 60440 $279,900 2,399 sq. ft. 8,712 sq. ft. $117
2017-09-22 Single Family Tri-Level 144 Tamarack Drive Bolingbrook, IL 60440 $217,500 7,841 sq. ft.
2017-09-22 Single Family 255 Cranberry Street Bolingbrook, IL 60490 $241,900 2,178 sq. ft. $111
2017-09-21 Single Family Traditional 145 Vincent Drive Bolingbrook, IL 60490 $340,000 2,868 sq. ft. 8,712 sq. ft. $119
2017-09-19 Single Family 630 Londonberry Lane Bolingbrook, IL 60440 $219,900 2,046 sq. ft. $107
2017-09-19 Single Family 216 Eagle Court Bolingbrook, IL 60440 $124,000 968 sq. ft. $128
2017-09-19 Single Family Contemporary 262 Clifton Lane Bolingbrook, IL 60440 $274,996 2,437 sq. ft. 12,632 sq. ft. $113
2017-09-18 Single Family 168 Shady Lane Bolingbrook, IL 60440 $135,000 1,200 sq. ft. 7,405 sq. ft. $112
2017-09-18 Single Family Ranch 169 Cypress Drive Bolingbrook, IL 60440 $165,000 1,162 sq. ft. 7,841 sq. ft. $142
2017-09-15 Single Family Ranch 481 Bradford Place Drive Bolingbrook, IL 60490 $259,900 2,000 sq. ft. 9,583 sq. ft. $130
2017-09-15 Single Family 656 Anne Court Bolingbrook, IL 60440 $320,000 2,500 sq. ft. 10,890 sq. ft. $128
2017-09-13 Single Family Ranch 552 White Oak Road Bolingbrook, IL 60440 $205,000 8,712 sq. ft.
2017-09-13 Single Family Bi-Level 166 Thackeray Drive Bolingbrook, IL 60440 $237,000 1,618 sq. ft. 6,534 sq. ft. $146
2017-09-11 Single Family 1544 Parkside Drive Bolingbrook, IL 60490 $339,000 2,577 sq. ft. 12,197 sq. ft. $132
2017-09-08 Single Family 7 Liberty Court Bolingbrook, IL 60440 $200,000 1,950 sq. ft. 7,405 sq. ft. $103
2017-09-07 Single Family Traditional 127 Cranberry Street Bolingbrook, IL 60490 $245,900 1,833 sq. ft. 8,712 sq. ft. $134
2017-09-07 Single Family Colonial 796 Bonnie Brae Court Bolingbrook, IL 60440 $288,900 2,658 sq. ft. 13,504 sq. ft. $109
2017-09-06 Single Family 225 Bedford Road Bolingbrook, IL 60440 $179,999 1,916 sq. ft. 9,148 sq. ft. $94
2017-09-05 Single Family 1170 Mandalay Lane Bolingbrook, IL 60440 $287,900 1,785 sq. ft. $161
2017-08-28 Single Family Contemporary 1166 Winding Way Bolingbrook, IL 60490 $339,000 3,386 sq. ft. $100
2017-08-26 Single Family Bi-Level 141 Sunset Lane Bolingbrook, IL 60440 $169,000 1,100 sq. ft. 6,098 sq. ft. $154
2017-08-25 Single Family Ranch 119 Queenswood Road Bolingbrook, IL 60440 $134,000 1,115 sq. ft. 8,276 sq. ft. $120
2017-08-22 Single Family Traditional 779 Metropolitan Avenue Bolingbrook, IL 60490 $289,900 2,395 sq. ft. 8,712 sq. ft. $121
2017-08-16 Single Family Georgian 3 Privett Court Bolingbrook, IL 60490 $349,900 3,300 sq. ft. 10,890 sq. ft. $106
2017-08-11 Single Family Contemporary 507 Ashbury Avenue Bolingbrook, IL 60440 $299,900 2,542 sq. ft. 12,197 sq. ft. $118
2017-08-11 Single Family Traditional 644 Lavina Court Bolingbrook, IL 60440 $354,900 2,440 sq. ft. 10,890 sq. ft. $145
2017-08-11 Single Family Traditional 1 Snead Court Bolingbrook, IL 60490 $313,900 2,894 sq. ft. 10,890 sq. ft. $108
2017-08-09 Single Family 324 Grand Canyon Drive Bolingbrook, IL 60440 $190,000 2,170 sq. ft. 10,890 sq. ft. $88
2017-08-09 Single Family Bi-Level 129 Cedarwood Avenue Bolingbrook, IL 60440 $185,000 904 sq. ft. 8,276 sq. ft. $205
2017-08-02 Single Family 20 Yukon Court Bolingbrook, IL 60490 $349,000 2,282 sq. ft. 11,326 sq. ft. $153
2017-08-02 Single Family 1559 Trails End Lane Bolingbrook, IL 60490 $329,500 3,500 sq. ft. 8,712 sq. ft. $94
2017-07-28 Single Family 796 Springbrook Lane Bolingbrook, IL 60490 $285,000 2,200 sq. ft. 10,019 sq. ft. $130
2017-07-28 Single Family 985 Ashbrook Circle Bolingbrook, IL 60440 $259,000 3,109 sq. ft. 11,326 sq. ft. $83
2017-07-26 Single Family 1582 Parkside Drive Bolingbrook, IL 60490 $324,999 2,650 sq. ft. 8,712 sq. ft. $123
2017-07-25 Single Family 543 Cottonwood Circle Bolingbrook, IL 60440 $175,000 2,355 sq. ft. 6,970 sq. ft. $74
2017-07-25 Single Family Traditional 253 Hanburg Lane Bolingbrook, IL 60440 $249,900 2,978 sq. ft. 10,019 sq. ft. $84
2017-07-18 Single Family 507 Dubois Circle Bolingbrook, IL 60440 $151,000 1,320 sq. ft. 2,178 sq. ft. $114
2017-07-15 Single Family Traditional 2 Wood Court Bolingbrook, IL 60440 $224,500 1,820 sq. ft. 9,148 sq. ft. $123
2017-07-14 Single Family 551 Barclay Drive Bolingbrook, IL 60440 $374,900 3,454 sq. ft. 10,019 sq. ft. $109
2017-07-12 Single Family 806 Barclay Drive Bolingbrook, IL 60440 $560,000 4,186 sq. ft. 10,019 sq. ft. $134
2017-06-27 Single Family Quad Level Bolingbrook, IL $220,000 1,701 sq. ft. 9,148 sq. ft. $129
2017-06-21 Single Family 1448 Schoenherr Avenue Bolingbrook, IL 60490 $227,900 2,147 sq. ft. 8,712 sq. ft. $106
2017-06-17 Single Family Colonial 236 Capitol Drive Bolingbrook, IL 60440 $204,900 1,402 sq. ft. 12,197 sq. ft. $146
2017-06-08 Single Family 685 Kensington Way Bolingbrook, IL 60440 $205,000 2,199 sq. ft. 9,583 sq. ft. $93
2017-06-07 Single Family 1430 Hawk Drive Bolingbrook, IL 60490 $229,900 1,946 sq. ft. 8,712 sq. ft. $118
2017-06-01 Single Family Traditional 626 Feathersound Drive Bolingbrook, IL 60440 $230,000 2,156 sq. ft. 10,019 sq. ft. $107
2017-05-26 Single Family Ranch 224 Janes Avenue Bolingbrook, IL 60440 $189,900 1,322 sq. ft. 7,841 sq. ft. $144
2017-05-10 Single Family Georgian 1249 Danhof Drive Bolingbrook, IL 60490 $279,900 11,326 sq. ft.
2017-05-06 Single Family 559 Falcon Ridge Way Bolingbrook, IL 60440 $129,000 1,248 sq. ft. 8,276 sq. ft. $103
2017-05-03 Single Family 484 Delaware Circle Bolingbrook, IL 60440 $572,000 2,700 sq. ft. 22,216 sq. ft. $212
2017-04-18 Single Family 513 Dubois Circle Bolingbrook, IL 60440 $130,000 1,180 sq. ft. 2,178 sq. ft. $110
2017-04-17 Single Family Traditional 319 Applewood Court Bolingbrook, IL 60440 $180,000 1,700 sq. ft. 7,405 sq. ft. $106
2017-04-12 Single Family Bi-Level 605 Ponderosa Drive Bolingbrook, IL 60440 $151,000 1,340 sq. ft. 8,712 sq. ft. $113
2017-04-11 Single Family 1142 Mandalay Lane Bolingbrook, IL 60440 $281,900 1,785 sq. ft. $158
2017-04-09 Single Family 1150 Mandalay Lane Bolingbrook, IL 60440 $268,900 1,700 sq. ft. $158
2017-04-08 Single Family 1129 Mandalay Lane Bolingbrook, IL 60440 $246,900 1,459 sq. ft. $169
2017-04-06 Single Family 232 Picardy Lane Bolingbrook, IL 60440 $168,000 1,675 sq. ft. $100
2017-04-05 Single Family Contemporary 204 Northridge Avenue Bolingbrook, IL 60440 $150,000 1,860 sq. ft. 6,098 sq. ft. $81
2017-04-04 Single Family 766 Lenox Avenue Bolingbrook, IL 60490 $215,000 2,200 sq. ft. 9,148 sq. ft. $98
2017-02-24 Single Family Traditional 1904 Marne Road Bolingbrook, IL 60490 $379,900 2,400 sq. ft. $158